Time;durP1;ratioP1;P1;durP2;ratioP2;P2;SDS_P1;SDS_P2;PMS_P1;PMS_P2;Temp;Humidity;BMP_temperature;BMP_pressure;BME280_temperature;BME280_humidity;BME280_pressure;Samples;Min_cycle;Max_cycle;Signal;HPM_P1;HPM_P2
2023/12/30 00:00:02;;;;;;;6.85;3.25;;;4.80;94.00;;;;;;5072467;28;20441;-48
2023/12/30 00:02:34;;;;;;;5.75;2.30;;;4.80;94.10;;;;;;5072803;28;20353;-51
2023/12/30 00:05:01;;;;;;;6.15;1.70;;;4.70;94.00;;;;;;5072260;28;20438;-50
2023/12/30 00:07:27;;;;;;;3.92;1.67;;;4.70;94.10;;;;;;5072104;28;20105;-47
2023/12/30 00:09:54;;;;;;;5.28;1.63;;;4.70;94.30;;;;;;5071726;28;20108;-50
2023/12/30 00:12:21;;;;;;;2.35;0.80;;;4.70;94.20;;;;;;5072428;28;20020;-50
2023/12/30 00:14:49;;;;;;;5.10;1.10;;;4.70;94.20;;;;;;5072423;28;20016;-48
2023/12/30 00:17:15;;;;;;;4.68;1.00;;;4.70;94.20;;;;;;5074180;28;20117;-46
2023/12/30 00:19:44;;;;;;;6.38;1.23;;;4.70;94.20;;;;;;5074322;28;20020;-50
2023/12/30 00:22:12;;;;;;;6.07;1.23;;;4.70;94.30;;;;;;5072197;28;20040;-49
2023/12/30 00:24:41;;;;;;;4.65;1.17;;;4.60;94.20;;;;;;5072257;28;20040;-49
2023/12/30 00:27:08;;;;;;;4.93;1.40;;;4.70;94.30;;;;;;5072054;28;20147;-50
2023/12/30 00:29:38;;;;;;;7.38;1.33;;;4.70;94.30;;;;;;5071572;28;20098;-49
2023/12/30 00:32:06;;;;;;;5.55;1.27;;;4.70;94.30;;;;;;5071428;28;20040;-51
2023/12/30 00:34:33;;;;;;;8.02;1.45;;;4.70;94.40;;;;;;5071368;28;20032;-50
2023/12/30 00:37:00;;;;;;;6.03;1.33;;;4.70;94.50;;;;;;5071800;28;20028;-49
2023/12/30 00:39:26;;;;;;;6.47;1.45;;;4.70;94.50;;;;;;5071955;28;20056;-48
2023/12/30 00:41:56;;;;;;;5.72;1.25;;;4.80;94.50;;;;;;5072197;28;20028;-51
2023/12/30 00:44:23;;;;;;;;;;;4.80;94.60;;;;;;5072627;28;20037;-51
2023/12/30 00:46:50;;;;;;;10.25;1.80;;;4.90;94.60;;;;;;5072112;28;19909;-48
2023/12/30 00:49:18;;;;;;;11.57;1.52;;;4.90;94.60;;;;;;5072105;28;20020;-47
2023/12/30 00:51:47;;;;;;;9.48;1.88;;;4.90;94.50;;;;;;5072111;28;20086;-51
2023/12/30 00:54:14;;;;;;;7.72;1.73;;;5.00;94.60;;;;;;5105593;28;20027;-51
2023/12/30 00:56:41;;;;;;;10.52;1.90;;;5.10;94.70;;;;;;5072391;28;20349;-50
2023/12/30 00:59:07;;;;;;;9.90;1.70;;;5.20;94.60;;;;;;5072089;28;20016;-51
2023/12/30 01:01:34;;;;;;;15.68;1.83;;;5.20;94.60;;;;;;5071853;28;20060;-50
2023/12/30 01:04:00;;;;;;;16.27;1.70;;;5.20;94.40;;;;;;5070463;28;20079;-49
2023/12/30 01:06:26;;;;;;;4.88;1.50;;;5.20;94.30;;;;;;5071656;28;20438;-49
2023/12/30 01:08:53;;;;;;;10.05;1.58;;;5.10;94.20;;;;;;5071760;28;20032;-51
2023/12/30 01:11:20;;;;;;;7.40;2.22;;;5.10;94.20;;;;;;5071852;28;20052;-51
2023/12/30 01:13:46;;;;;;;15.40;2.58;;;5.10;94.20;;;;;;5074385;28;20020;-48
2023/12/30 01:16:12;;;;;;;9.63;2.13;;;5.00;94.10;;;;;;5071663;28;20043;-49
2023/12/30 01:18:42;;;;;;;8.77;1.48;;;5.00;94.00;;;;;;5071726;28;20024;-50
2023/12/30 01:21:09;;;;;;;12.88;2.05;;;5.00;94.10;;;;;;5071429;28;20045;-48
2023/12/30 01:23:35;;;;;;;6.75;1.27;;;4.90;94.10;;;;;;5071575;28;20061;-47
2023/12/30 01:26:02;;;;;;;9.88;1.50;;;4.90;94.10;;;;;;5071639;28;20029;-46
2023/12/30 01:28:31;;;;;;;9.10;1.45;;;4.90;94.20;;;;;;5071732;28;20020;-52
2023/12/30 01:30:58;;;;;;;8.57;1.80;;;4.90;94.30;;;;;;5078226;28;20031;-49
2023/12/30 01:33:25;;;;;;;11.40;1.85;;;5.00;94.20;;;;;;5075105;28;20055;-47
2023/12/30 01:35:50;;;;;;;14.55;1.90;;;4.90;94.20;;;;;;5092698;28;20036;-49
2023/12/30 01:38:17;;;;;;;10.55;1.77;;;4.90;94.20;;;;;;5075212;28;20026;-52
2023/12/30 01:40:43;;;;;;;11.15;1.50;;;5.00;94.20;;;;;;5075016;28;20039;-49
2023/12/30 01:43:30;;;;;;;11.20;1.77;;;5.00;94.20;;;;;;5075088;28;20461;-46
2023/12/30 01:46:01;;;;;;;8.55;1.60;;;5.00;94.20;;;;;;5074871;28;20118;-51
2023/12/30 01:48:29;;;;;;;9.50;2.00;;;5.00;94.20;;;;;;5091520;28;20024;-51
2023/12/30 01:50:58;;;;;;;10.85;1.63;;;5.00;94.20;;;;;;5075043;28;20032;-51
2023/12/30 01:53:26;;;;;;;9.75;1.80;;;5.00;94.10;;;;;;5074937;28;20329;-48
2023/12/30 01:55:55;;;;;;;6.70;1.87;;;5.00;94.00;;;;;;5057357;28;20059;-47
2023/12/30 01:58:21;;;;;;;7.95;1.80;;;4.90;93.90;;;;;;5074647;28;20044;-50
2023/12/30 02:00:49;;;;;;;7.45;1.58;;;5.00;93.80;;;;;;5074705;28;20029;-48
2023/12/30 02:03:23;;;;;;;16.55;3.78;;;5.00;93.60;;;;;;5075000;28;20028;-49
2023/12/30 02:05:48;;;;;;;11.05;1.50;;;5.00;93.40;;;;;;5057254;28;20025;-46
2023/12/30 02:08:17;;;;;;;6.13;1.35;;;5.00;93.30;;;;;;5074843;28;20449;-47
2023/12/30 02:10:43;;;;;;;18.05;1.80;;;5.10;93.30;;;;;;5074887;28;20327;-48
2023/12/30 02:13:10;;;;;;;10.05;2.03;;;5.10;93.30;;;;;;5074677;28;20030;-50
2023/12/30 02:15:37;;;;;;;9.57;1.77;;;5.20;93.40;;;;;;5074574;28;20024;-49
2023/12/30 02:18:04;;;;;;;10.57;3.40;;;5.20;93.30;;;;;;5083008;28;20032;-48
2023/12/30 02:20:32;;;;;;;11.63;1.70;;;5.20;93.30;;;;;;5074227;28;20357;-51
2023/12/30 02:23:01;;;;;;;7.55;1.70;;;5.20;93.30;;;;;;5074394;28;20027;-47
2023/12/30 02:25:28;;;;;;;12.15;1.75;;;5.20;93.30;;;;;;5074339;28;20383;-49
2023/12/30 02:27:54;;;;;;;13.82;2.25;;;5.20;93.30;;;;;;5074048;28;20063;-46
2023/12/30 02:30:24;;;;;;;8.02;1.92;;;5.30;93.40;;;;;;5077121;28;20029;-52
2023/12/30 02:32:54;;;;;;;7.45;2.22;;;5.30;93.40;;;;;;5074125;28;20024;-50
2023/12/30 02:35:23;;;;;;;13.25;3.22;;;5.40;93.40;;;;;;5074228;28;20028;-51
2023/12/30 02:37:50;;;;;;;7.88;1.70;;;5.40;93.40;;;;;;5074139;28;20037;-51
2023/12/30 02:40:16;;;;;;;9.57;2.33;;;5.40;93.40;;;;;;5073589;28;20067;-48
2023/12/30 02:42:46;;;;;;;7.43;2.50;;;5.50;93.30;;;;;;5074013;28;20024;-49
2023/12/30 02:45:13;;;;;;;;;;;5.50;93.30;;;;;;5074006;28;20047;-48
2023/12/30 02:47:40;;;;;;;13.50;3.05;;;5.50;93.30;;;;;;5073364;28;19905;-47
2023/12/30 02:50:07;;;;;;;8.93;1.65;;;5.60;93.20;;;;;;5073919;28;20494;-47
2023/12/30 02:52:34;;;;;;;16.48;2.25;;;5.60;93.20;;;;;;5077220;28;20453;-48
2023/12/30 02:55:03;;;;;;;11.63;2.65;;;5.60;93.10;;;;;;5100960;28;20024;-49
2023/12/30 02:57:28;;;;;;;11.20;2.80;;;5.60;93.00;;;;;;5077258;28;20154;-47
2023/12/30 02:59:58;;;;;;;14.25;2.25;;;5.70;93.00;;;;;;5082333;28;20500;-50
2023/12/30 03:02:24;;;;;;;9.95;2.10;;;5.70;92.90;;;;;;5073531;28;20012;-55
2023/12/30 03:04:54;;;;;;;17.50;2.05;;;5.70;92.90;;;;;;5073445;28;20024;-53
2023/12/30 03:07:23;;;;;;;10.82;2.00;;;5.70;92.90;;;;;;5073402;28;20094;-55
2023/12/30 03:09:51;;;;;;;24.23;3.38;;;5.80;92.90;;;;;;5073578;28;20410;-51
2023/12/30 03:12:19;;;;;;;10.13;2.22;;;5.80;92.90;;;;;;5073399;28;20573;-51
2023/12/30 03:14:44;;;;;;;9.88;1.98;;;5.70;93.00;;;;;;5073231;28;20064;-50
2023/12/30 03:17:11;;;;;;;9.75;1.67;;;5.70;93.00;;;;;;5055325;28;20446;-55
2023/12/30 03:19:40;;;;;;;11.05;1.85;;;5.70;93.00;;;;;;5072984;28;20047;-57
2023/12/30 03:22:07;;;;;;;7.17;1.43;;;5.70;93.10;;;;;;5072964;28;20131;-50
2023/12/30 03:24:34;;;;;;;8.13;1.98;;;5.50;92.80;;;;;;5072935;28;20025;-47
2023/12/30 03:27:03;;;;;;;9.80;2.45;;;5.50;92.80;;;;;;5086407;28;20023;-51
2023/12/30 03:29:30;;;;;;;9.20;2.00;;;5.40;92.80;;;;;;5073136;28;20020;-48
2023/12/30 03:31:56;;;;;;;12.55;2.35;;;5.40;92.90;;;;;;5084383;28;20295;-50
2023/12/30 03:34:27;;;;;;;10.13;2.75;;;5.40;92.90;;;;;;5072827;28;20107;-53
2023/12/30 03:36:53;;;;;;;8.85;3.88;;;5.50;93.00;;;;;;5073022;28;20020;-53
2023/12/30 03:39:20;;;;;;;12.05;2.75;;;5.50;93.00;;;;;;5073088;28;20025;-48
2023/12/30 03:41:50;;;;;;;12.40;2.63;;;5.60;92.80;;;;;;5073039;28;20101;-50
2023/12/30 03:44:17;;;;;;;;;;;5.70;92.60;;;;;;5073437;28;20099;-51
2023/12/30 03:46:44;;;;;;;17.13;4.68;;;5.70;92.40;;;;;;5072460;28;20022;-49
2023/12/30 03:49:11;;;;;;;10.68;3.17;;;5.80;92.40;;;;;;5072507;28;20023;-52
2023/12/30 03:51:37;;;;;;;15.38;3.92;;;5.70;92.30;;;;;;5073599;28;20032;-50
2023/12/30 03:54:04;;;;;;;10.05;3.03;;;5.70;92.30;;;;;;5076232;28;20093;-52
2023/12/30 03:56:32;;;;;;;16.77;3.30;;;5.80;92.20;;;;;;5072785;28;20056;-52
2023/12/30 03:58:59;;;;;;;12.68;3.85;;;5.80;92.20;;;;;;5072756;28;20021;-54
2023/12/30 04:01:27;;;;;;;11.55;2.65;;;5.80;92.00;;;;;;5072392;28;20073;-53
2023/12/30 04:03:53;;;;;;;15.82;2.85;;;5.80;91.90;;;;;;5072814;28;20028;-54
2023/12/30 04:06:19;;;;;;;10.90;2.70;;;5.90;92.00;;;;;;5071583;28;20079;-52
2023/12/30 04:08:47;;;;;;;14.10;3.13;;;5.90;92.00;;;;;;5075449;28;20024;-47
2023/12/30 04:11:13;;;;;;;11.98;3.03;;;5.90;91.80;;;;;;5072551;28;20103;-50
2023/12/30 04:13:39;;;;;;;8.77;2.65;;;5.90;91.70;;;;;;5072355;28;20470;-49
2023/12/30 04:16:07;;;;;;;14.13;3.17;;;5.90;91.70;;;;;;5072485;28;20119;-49
2023/12/30 04:18:34;;;;;;;9.15;2.53;;;5.90;91.80;;;;;;5072186;28;20039;-48
2023/12/30 04:21:01;;;;;;;23.15;3.85;;;5.80;91.90;;;;;;5072101;28;20174;-48
2023/12/30 04:23:28;;;;;;;10.80;2.50;;;5.80;92.00;;;;;;5072362;28;20152;-48
2023/12/30 04:25:55;;;;;;;16.15;4.22;;;5.80;92.00;;;;;;5072335;28;20023;-47
2023/12/30 04:28:20;;;;;;;12.25;2.78;;;5.80;91.90;;;;;;5061782;28;20025;-48
2023/12/30 04:30:47;;;;;;;10.55;2.85;;;5.90;92.00;;;;;;5081917;28;20119;-47
2023/12/30 04:33:14;;;;;;;14.80;2.67;;;5.90;91.90;;;;;;5072456;28;20024;-47
2023/12/30 04:35:41;;;;;;;17.88;3.83;;;5.90;91.80;;;;;;5072535;28;20388;-48
2023/12/30 04:38:08;;;;;;;14.00;2.53;;;5.90;91.60;;;;;;5071713;28;20039;-51
2023/12/30 04:40:37;;;;;;;17.00;3.55;;;5.90;91.60;;;;;;5071350;28;20021;-58
2023/12/30 04:43:04;;;;;;;15.95;2.53;;;5.90;91.70;;;;;;5071518;28;20337;-57
2023/12/30 04:45:31;;;;;;;16.98;2.75;;;6.00;92.10;;;;;;5071530;28;20082;-55
2023/12/30 04:47:57;;;;;;;15.82;2.95;;;6.00;92.40;;;;;;5072416;28;20374;-55
2023/12/30 04:50:25;;;;;;;13.82;2.47;;;5.90;92.60;;;;;;5071865;28;20036;-49
2023/12/30 04:52:52;;;;;;;17.67;2.53;;;5.90;92.90;;;;;;5079004;28;20024;-49
2023/12/30 04:55:23;;;;;;;9.10;2.42;;;5.90;93.10;;;;;;5075005;28;20450;-53
2023/12/30 04:57:49;;;;;;;7.28;1.40;;;5.80;93.00;;;;;;5054301;28;20406;-48
2023/12/30 05:00:20;;;;;;;4.22;0.90;;;5.70;92.90;;;;;;5072142;28;20165;-47
2023/12/30 05:02:47;;;;;;;6.72;1.17;;;5.60;92.70;;;;;;5100553;28;20024;-51
2023/12/30 05:05:14;;;;;;;8.43;1.38;;;5.60;92.60;;;;;;5077220;28;20036;-47
2023/12/30 05:07:40;;;;;;;9.10;3.60;;;5.50;92.60;;;;;;5075867;28;20021;-51
2023/12/30 05:10:09;;;;;;;21.33;6.30;;;5.50;92.60;;;;;;5075758;28;20035;-47
2023/12/30 05:12:36;;;;;;;23.80;8.27;;;5.50;92.80;;;;;;5075314;28;20108;-51
2023/12/30 05:15:05;;;;;;;14.57;4.80;;;5.50;92.70;;;;;;5075802;28;20070;-47
2023/12/30 05:17:34;;;;;;;9.70;3.80;;;5.50;92.70;;;;;;5075420;28;20107;-47
2023/12/30 05:20:01;;;;;;;40.38;16.85;;;5.50;92.60;;;;;;5090907;28;20048;-47
2023/12/30 05:22:28;;;;;;;7.13;2.38;;;5.40;92.40;;;;;;5075300;28;20474;-49
2023/12/30 05:24:54;;;;;;;5.43;2.55;;;5.40;92.30;;;;;;5075056;28;20089;-48
2023/12/30 05:27:21;;;;;;;5.55;1.27;;;5.30;92.20;;;;;;5075434;28;20094;-48
2023/12/30 05:29:47;;;;;;;7.95;1.73;;;5.40;92.30;;;;;;5075869;28;20028;-46
2023/12/30 05:32:14;;;;;;;6.32;3.28;;;5.40;92.30;;;;;;5075009;28;20287;-51
2023/12/30 05:34:41;;;;;;;15.07;5.03;;;5.40;92.30;;;;;;5074977;28;20086;-50
2023/12/30 05:37:07;;;;;;;24.10;8.05;;;5.40;92.20;;;;;;5088553;28;20044;-48
2023/12/30 05:39:34;;;;;;;10.90;4.18;;;5.40;92.10;;;;;;5075377;28;20496;-50
2023/12/30 05:42:02;;;;;;;9.45;3.95;;;5.50;92.10;;;;;;5080302;28;20035;-47
2023/12/30 05:44:29;;;;;;;8.10;2.55;;;5.50;92.20;;;;;;5082838;28;20421;-46
2023/12/30 05:46:54;;;;;;;15.32;2.60;;;5.50;92.10;;;;;;5080968;28;20016;-49
2023/12/30 05:49:21;;;;;;;10.68;3.10;;;5.60;92.20;;;;;;5081667;28;20483;-47
2023/12/30 05:51:50;;;;;;;15.70;3.53;;;5.60;92.30;;;;;;5062767;28;20112;-47
2023/12/30 05:54:17;;;;;;;7.32;1.83;;;5.60;92.40;;;;;;5080803;28;20070;-46
2023/12/30 05:56:43;;;;;;;14.35;3.10;;;5.70;92.50;;;;;;5086059;28;20380;-50
2023/12/30 05:59:12;;;;;;;9.23;2.08;;;5.70;92.60;;;;;;5086057;28;20111;-53
2023/12/30 06:01:47;;;;;;;9.90;1.92;;;5.80;92.60;;;;;;5083650;28;20107;-52
2023/12/30 06:04:14;;;;;;;12.40;2.50;;;5.80;92.70;;;;;;5088351;28;21174;-50
2023/12/30 06:06:42;;;;;;;16.45;3.78;;;5.80;92.90;;;;;;5082203;28;20067;-48
2023/12/30 06:09:08;;;;;;;18.95;5.32;;;5.80;93.00;;;;;;5078603;28;20449;-50
2023/12/30 06:11:35;;;;;;;18.98;5.20;;;5.70;93.10;;;;;;5081438;28;20111;-53
2023/12/30 06:14:02;;;;;;;16.73;4.93;;;5.80;93.20;;;;;;5083876;28;20346;-50
2023/12/30 06:16:29;;;;;;;12.48;3.67;;;5.80;93.30;;;;;;5074750;28;20027;-51
2023/12/30 06:18:55;;;;;;;12.43;2.83;;;5.70;93.40;;;;;;5074242;28;20032;-53
2023/12/30 06:21:22;;;;;;;12.93;2.67;;;5.80;93.50;;;;;;5073758;28;20090;-53
2023/12/30 06:23:49;;;;;;;13.38;3.00;;;5.70;93.40;;;;;;5074452;28;20052;-48
2023/12/30 06:26:14;;;;;;;12.32;3.30;;;5.70;93.40;;;;;;5073736;28;20502;-48
2023/12/30 06:28:40;;;;;;;13.40;2.22;;;5.70;93.40;;;;;;5073735;28;20028;-47
2023/12/30 06:31:07;;;;;;;18.60;4.75;;;5.70;93.40;;;;;;5076375;28;20021;-48
2023/12/30 06:33:34;;;;;;;12.55;2.45;;;5.70;93.40;;;;;;5080347;28;20346;-48
2023/12/30 06:35:59;;;;;;;15.52;2.97;;;5.70;93.30;;;;;;5081249;28;20400;-48
2023/12/30 06:38:27;;;;;;;16.50;4.03;;;5.70;93.30;;;;;;5080286;28;20033;-49
2023/12/30 06:40:52;;;;;;;24.80;5.65;;;5.80;93.10;;;;;;5073101;28;20040;-46
2023/12/30 06:43:20;;;;;;;17.35;5.28;;;5.80;93.00;;;;;;5073223;28;20027;-49
2023/12/30 06:45:47;;;;;;;11.20;2.72;;;5.80;92.80;;;;;;5072246;28;20028;-46
2023/12/30 06:48:17;;;;;;;11.73;2.55;;;5.80;92.60;;;;;;5079175;28;20396;-47
2023/12/30 06:50:45;;;;;;;16.48;3.42;;;5.90;92.40;;;;;;5072129;28;20398;-50
2023/12/30 06:53:15;;;;;;;13.98;2.95;;;5.90;92.40;;;;;;5076867;28;20024;-53
2023/12/30 06:55:41;;;;;;;12.13;2.60;;;5.90;92.30;;;;;;5076737;28;20627;-46
2023/12/30 06:58:10;;;;;;;11.05;2.75;;;5.90;92.30;;;;;;5075752;28;20096;-50
2023/12/30 07:00:37;;;;;;;12.90;2.70;;;5.90;92.10;;;;;;5073201;28;20040;-47
2023/12/30 07:03:04;;;;;;;12.25;2.90;;;5.90;92.10;;;;;;5074599;28;20271;-46
2023/12/30 07:05:35;;;;;;;9.80;3.25;;;5.90;92.10;;;;;;5072536;28;20112;-47
2023/12/30 07:08:04;;;;;;;9.23;2.75;;;5.90;92.20;;;;;;5072716;28;20418;-49
2023/12/30 07:10:31;;;;;;;13.60;2.60;;;5.90;92.20;;;;;;5075726;28;20032;-51
2023/12/30 07:12:58;;;;;;;13.75;2.42;;;5.90;92.30;;;;;;5082228;28;20273;-49
2023/12/30 07:15:23;;;;;;;17.38;2.58;;;5.90;92.30;;;;;;5077255;28;20017;-53
2023/12/30 07:17:49;;;;;;;12.15;2.13;;;5.90;92.60;;;;;;5077093;28;20476;-54
2023/12/30 07:20:17;;;;;;;5.72;1.60;;;5.90;92.60;;;;;;5073358;28;20048;-54
2023/12/30 07:22:44;;;;;;;5.65;1.40;;;5.40;92.00;;;;;;5058422;28;20048;-56
2023/12/30 07:25:10;;;;;;;6.30;1.35;;;5.40;92.50;;;;;;5080220;28;20081;-55
2023/12/30 07:27:37;;;;;;;5.28;1.42;;;5.30;92.70;;;;;;5072902;28;20032;-49
2023/12/30 07:30:07;;;;;;;3.83;1.02;;;5.20;92.90;;;;;;5076893;28;20024;-55
2023/12/30 07:32:34;;;;;;;5.07;1.50;;;5.20;93.20;;;;;;5059643;28;20043;-50
2023/12/30 07:35:01;;;;;;;6.05;1.40;;;5.20;93.40;;;;;;5091113;28;20035;-51
2023/12/30 07:37:29;;;;;;;10.10;2.10;;;5.20;93.70;;;;;;5070961;28;20138;-52
2023/12/30 07:39:57;;;;;;;9.40;2.08;;;5.20;93.80;;;;;;5087760;28;20132;-53
2023/12/30 07:42:27;;;;;;;6.13;2.35;;;5.20;94.10;;;;;;5091209;28;20377;-51
2023/12/30 07:44:53;;;;;;;12.95;2.80;;;5.20;94.20;;;;;;5085815;28;20398;-56
2023/12/30 07:47:20;;;;;;;14.05;2.17;;;5.30;94.30;;;;;;5085996;28;20099;-57
2023/12/30 07:49:53;;;;;;;7.93;2.10;;;5.30;94.40;;;;;;5090984;28;20027;-55
2023/12/30 07:52:24;;;;;;;7.63;1.58;;;5.40;94.50;;;;;;5089468;28;20111;-54
2023/12/30 07:54:50;;;;;;;7.93;1.60;;;5.30;94.50;;;;;;5088251;28;20024;-57
2023/12/30 07:57:16;;;;;;;6.25;1.73;;;5.30;94.50;;;;;;5091309;28;20024;-51
2023/12/30 07:59:42;;;;;;;8.77;2.13;;;5.40;94.50;;;;;;5090913;28;20024;-54
2023/12/30 08:02:08;;;;;;;8.30;2.08;;;5.40;94.50;;;;;;5089402;28;20032;-53
2023/12/30 08:04:37;;;;;;;7.95;1.90;;;5.30;94.60;;;;;;5063162;28;20640;-53
2023/12/30 08:07:04;;;;;;;4.28;1.70;;;5.30;94.60;;;;;;5091112;28;20115;-55
2023/12/30 08:09:31;;;;;;;9.35;2.38;;;5.30;94.60;;;;;;5088695;28;20024;-55
2023/12/30 08:11:57;;;;;;;5.20;1.65;;;5.30;94.60;;;;;;5082833;28;20035;-50
2023/12/30 08:14:24;;;;;;;4.38;1.50;;;5.30;94.60;;;;;;5091491;28;20729;-49
2023/12/30 08:16:51;;;;;;;6.97;1.20;;;5.20;94.60;;;;;;5085723;28;20027;-54
2023/12/30 08:19:18;;;;;;;4.82;1.30;;;5.30;94.60;;;;;;5091407;28;20419;-51
2023/12/30 08:21:45;;;;;;;8.52;3.00;;;5.20;94.60;;;;;;5090198;28;20127;-50
2023/12/30 08:24:14;;;;;;;9.10;2.60;;;5.30;94.70;;;;;;5084515;28;20020;-52
2023/12/30 08:26:41;;;;;;;4.90;1.65;;;5.30;94.60;;;;;;5090772;28;20020;-56
2023/12/30 08:29:08;;;;;;;5.65;1.70;;;5.30;94.70;;;;;;5066566;28;20377;-56
2023/12/30 08:31:45;;;;;;;5.85;2.00;;;5.20;94.70;;;;;;5077536;28;20032;-57
2023/12/30 08:34:13;;;;;;;5.88;1.45;;;5.30;94.80;;;;;;5080162;28;20528;-54
2023/12/30 08:36:42;;;;;;;9.40;2.05;;;5.30;94.80;;;;;;5076490;28;20112;-54
2023/12/30 08:39:08;;;;;;;6.25;1.65;;;5.30;94.80;;;;;;5090765;28;20025;-57
2023/12/30 08:41:35;;;;;;;5.38;1.60;;;5.30;94.90;;;;;;5077289;28;20056;-57
2023/12/30 08:44:02;;;;;;;10.00;2.05;;;5.20;94.70;;;;;;5092444;28;20031;-53
2023/12/30 08:46:30;;;;;;;5.80;1.38;;;5.10;94.60;;;;;;5075339;28;20044;-54
2023/12/30 08:48:57;;;;;;;7.05;1.20;;;5.00;94.60;;;;;;5076733;28;20062;-52
2023/12/30 08:51:25;;;;;;;6.88;1.30;;;5.00;94.70;;;;;;5075391;28;20330;-50
2023/12/30 08:53:53;;;;;;;5.40;1.10;;;5.00;94.70;;;;;;5078581;28;20428;-53
2023/12/30 08:56:20;;;;;;;4.07;1.00;;;5.00;94.80;;;;;;5075065;28;20020;-56
2023/12/30 08:58:46;;;;;;;3.28;1.20;;;5.00;94.80;;;;;;5075483;28;20182;-47
2023/12/30 09:01:14;;;;;;;5.00;1.45;;;5.00;94.90;;;;;;5075317;28;20035;-48
2023/12/30 09:03:41;;;;;;;6.00;1.00;;;5.10;94.90;;;;;;5075970;28;20449;-53
2023/12/30 09:06:07;;;;;;;5.85;2.22;;;5.00;94.80;;;;;;5093381;28;20036;-51
2023/12/30 09:08:35;;;;;;;2.05;0.80;;;5.10;94.90;;;;;;5081724;28;20427;-54
2023/12/30 09:11:04;;;;;;;6.35;1.20;;;5.10;95.00;;;;;;5074413;28;20028;-54
2023/12/30 09:13:30;;;;;;;4.77;0.97;;;5.00;95.00;;;;;;5057455;28;20051;-53
2023/12/30 09:15:57;;;;;;;2.35;1.00;;;5.10;95.10;;;;;;5079306;28;20043;-52
2023/12/30 09:18:24;;;;;;;4.47;1.02;;;5.20;95.10;;;;;;5075810;28;20101;-51
2023/12/30 09:20:50;;;;;;;4.57;1.35;;;5.20;95.20;;;;;;5078593;28;20060;-51
2023/12/30 09:23:17;;;;;;;3.55;1.30;;;5.20;95.20;;;;;;5080073;28;20016;-52
2023/12/30 09:25:43;;;;;;;7.65;2.97;;;5.20;95.20;;;;;;5074353;28;20107;-56
2023/12/30 09:28:10;;;;;;;6.45;1.88;;;5.30;95.30;;;;;;5059717;28;20113;-48
2023/12/30 09:30:36;;;;;;;9.35;1.65;;;5.40;95.40;;;;;;5075127;28;20025;-52
2023/12/30 09:33:04;;;;;;;9.43;1.83;;;5.40;95.30;;;;;;5076144;28;20025;-52
2023/12/30 09:35:31;;;;;;;6.35;1.65;;;5.40;95.30;;;;;;5074826;28;20548;-48
2023/12/30 09:37:57;;;;;;;5.93;1.63;;;5.50;95.20;;;;;;5074900;28;20029;-46
2023/12/30 09:40:26;;;;;;;5.93;2.08;;;5.60;95.20;;;;;;5074710;28;20489;-49
2023/12/30 09:43:03;;;;;;;7.20;1.80;;;5.60;95.10;;;;;;5074887;28;20609;-52
2023/12/30 09:45:39;;;;;;;4.25;1.92;;;5.60;95.00;;;;;;5074868;28;20357;-49
2023/12/30 09:48:06;;;;;;;10.98;2.17;;;5.70;95.00;;;;;;5074668;28;20020;-50
2023/12/30 09:50:34;;;;;;;9.88;2.60;;;5.80;95.00;;;;;;5055933;28;20040;-46
2023/12/30 09:53:01;;;;;;;10.23;3.00;;;5.90;95.00;;;;;;5074472;28;20032;-52
2023/12/30 09:55:32;;;;;;;7.65;1.42;;;5.90;94.80;;;;;;5074869;28;20028;-51
2023/12/30 09:58:00;;;;;;;4.72;1.15;;;5.80;94.80;;;;;;5074612;28;20020;-57
2023/12/30 10:00:30;;;;;;;8.23;1.90;;;5.80;94.80;;;;;;5074521;28;20066;-57
2023/12/30 10:03:00;;;;;;;8.60;1.55;;;5.70;94.80;;;;;;5074651;28;20032;-57
2023/12/30 10:05:27;;;;;;;4.80;1.60;;;5.70;94.90;;;;;;5074699;28;20020;-57
2023/12/30 10:07:54;;;;;;;12.65;2.10;;;5.70;95.00;;;;;;5074644;28;20029;-59
2023/12/30 10:10:44;;;;;;;9.35;1.65;;;5.70;95.00;;;;;;5073756;28;20024;-57
2023/12/30 10:13:21;;;;;;;8.55;2.10;;;5.70;95.10;;;;;;5073831;28;20029;-54
2023/12/30 10:15:48;;;;;;;13.60;3.58;;;5.80;95.20;;;;;;5074362;28;20093;-48
2023/12/30 10:18:15;;;;;;;19.70;5.05;;;5.80;95.20;;;;;;5074391;28;20052;-50
2023/12/30 10:20:43;;;;;;;15.38;4.65;;;5.90;95.20;;;;;;5073876;28;20028;-48
2023/12/30 10:23:12;;;;;;;15.75;5.07;;;5.90;95.20;;;;;;5074338;28;20116;-52
2023/12/30 10:25:41;;;;;;;14.82;4.00;;;6.00;95.20;;;;;;5074863;28;20020;-51
2023/12/30 10:28:07;;;;;;;19.85;5.28;;;6.00;95.20;;;;;;5074056;28;20025;-50
2023/12/30 10:30:35;;;;;;;12.15;4.03;;;6.10;95.10;;;;;;5082905;28;20031;-48
2023/12/30 10:33:14;;;;;;;10.13;3.55;;;6.10;95.10;;;;;;5094246;28;20043;-51
2023/12/30 10:35:42;;;;;;;12.10;4.85;;;6.20;95.10;;;;;;5074330;28;20111;-49
2023/12/30 10:38:13;;;;;;;12.30;3.50;;;6.20;95.10;;;;;;5073894;28;20028;-51
2023/12/30 10:40:43;;;;;;;11.90;2.80;;;6.30;95.10;;;;;;5073785;28;20112;-47
2023/12/30 10:43:10;;;;;;;19.52;5.10;;;6.30;95.10;;;;;;5073872;28;20025;-47
2023/12/30 10:45:37;;;;;;;20.00;2.88;;;6.40;94.90;;;;;;5073810;28;20078;-48
2023/12/30 10:48:06;;;;;;;15.10;2.67;;;6.40;94.70;;;;;;5073699;28;20061;-49
2023/12/30 10:50:37;;;;;;;11.32;3.17;;;6.40;94.60;;;;;;5073474;28;20036;-53
2023/12/30 10:53:38;;;;;;;10.70;2.22;;;6.50;94.50;;;;;;5077678;28;20020;-50
2023/12/30 10:56:09;;;;;;;14.25;2.95;;;6.50;94.20;;;;;;5069737;28;20124;-52
2023/12/30 10:58:39;;;;;;;11.02;3.53;;;6.60;94.10;;;;;;5072276;28;20158;-50
2023/12/30 11:01:07;;;;;;;;;;;6.70;94.00;;;;;;5073370;28;20496;-49
2023/12/30 11:03:35;;;;;;;11.68;2.65;;;6.80;93.90;;;;;;5072937;28;19908;-50
2023/12/30 11:06:26;;;;;;;13.13;4.07;;;6.90;93.80;;;;;;5072829;28;20515;-50
2023/12/30 11:09:14;;;;;;;12.50;2.90;;;6.90;93.50;;;;;;5073593;28;20020;-49
2023/12/30 11:12:01;;;;;;;13.80;2.38;;;6.90;93.30;;;;;;5072845;28;20028;-51
2023/12/30 11:14:27;;;;;;;15.05;2.28;;;6.90;93.30;;;;;;5075076;28;20028;-46
2023/12/30 11:16:55;;;;;;;15.43;3.50;;;6.90;93.20;;;;;;5083442;28;20491;-53
2023/12/30 11:19:26;;;;;;;10.25;2.40;;;6.90;93.10;;;;;;5071351;28;20335;-48
2023/12/30 11:21:55;;;;;;;11.40;2.60;;;7.00;93.20;;;;;;5071844;28;20063;-50
2023/12/30 11:24:22;;;;;;;10.45;2.85;;;7.10;93.20;;;;;;5072626;28;20443;-52
2023/12/30 11:26:53;;;;;;;12.68;2.38;;;7.10;92.80;;;;;;5072096;28;20072;-51
2023/12/30 11:29:25;;;;;;;17.48;4.43;;;7.20;92.90;;;;;;5058914;28;20346;-47
2023/12/30 11:31:53;;;;;;;11.63;2.58;;;7.20;92.60;;;;;;5074173;28;20327;-49
2023/12/30 11:34:20;;;;;;;13.48;2.60;;;7.10;92.20;;;;;;5072208;28;20043;-47
2023/12/30 11:36:47;;;;;;;12.57;4.32;;;7.10;91.90;;;;;;5072406;28;20093;-51
2023/12/30 11:39:38;;;;;;;15.75;3.80;;;7.00;92.00;;;;;;5072353;28;20036;-51
2023/12/30 11:42:06;;;;;;;11.15;4.07;;;7.00;91.90;;;;;;5074636;28;20032;-51
2023/12/30 11:44:33;;;;;;;12.07;2.25;;;7.00;91.80;;;;;;5083024;28;20061;-48
2023/12/30 11:46:59;;;;;;;12.23;2.80;;;6.90;91.70;;;;;;5086190;28;20027;-50
2023/12/30 11:49:28;;;;;;;9.23;2.40;;;6.90;91.70;;;;;;5078952;28;20031;-47
2023/12/30 11:52:07;;;;;;;17.20;3.95;;;6.80;91.70;;;;;;5086060;28;20283;-47
2023/12/30 11:54:35;;;;;;;11.03;3.90;;;6.80;91.70;;;;;;5084596;28;20036;-50
2023/12/30 11:57:03;;;;;;;23.92;3.90;;;6.80;91.80;;;;;;5073662;28;20266;-51
2023/12/30 11:59:30;;;;;;;9.40;2.70;;;6.70;91.70;;;;;;5076067;28;20526;-49
2023/12/30 12:02:13;;;;;;;13.70;2.80;;;6.60;91.70;;;;;;5086977;28;20449;-46
2023/12/30 12:04:41;;;;;;;10.80;2.70;;;6.70;92.10;;;;;;5075579;28;20099;-47
2023/12/30 12:07:08;;;;;;;11.05;2.08;;;6.80;91.90;;;;;;5085195;28;20090;-51
2023/12/30 12:09:33;;;;;;;14.93;3.28;;;6.90;92.10;;;;;;5075982;28;20338;-48
2023/12/30 12:12:01;;;;;;;12.63;2.53;;;6.90;91.60;;;;;;5077273;28;20047;-48
2023/12/30 12:14:29;;;;;;;9.73;2.83;;;7.00;91.40;;;;;;5070563;28;20024;-49
2023/12/30 12:17:02;;;;;;;8.82;2.70;;;6.90;91.00;;;;;;5072004;28;20021;-49
2023/12/30 12:19:29;;;;;;;10.40;2.20;;;6.90;90.80;;;;;;5071706;28;20029;-49
2023/12/30 12:22:00;;;;;;;10.27;3.88;;;6.80;90.90;;;;;;5072081;28;20048;-52
2023/12/30 12:24:31;;;;;;;14.00;2.80;;;6.70;90.90;;;;;;5071202;28;20124;-48
2023/12/30 12:26:57;;;;;;;11.50;3.30;;;6.70;90.90;;;;;;5072962;28;20084;-47
2023/12/30 12:29:26;;;;;;;8.40;2.72;;;6.60;91.10;;;;;;5064607;28;20028;-46
2023/12/30 12:31:52;;;;;;;13.93;2.80;;;6.70;91.20;;;;;;5085778;28;20103;-47
2023/12/30 12:34:24;;;;;;;10.48;2.30;;;6.60;91.20;;;;;;5088288;28;20719;-46
2023/12/30 12:36:51;;;;;;;9.50;2.88;;;6.60;91.40;;;;;;5071162;28;20024;-48
2023/12/30 12:39:21;;;;;;;19.10;3.83;;;6.70;91.50;;;;;;5073349;28;20492;-47
2023/12/30 12:41:48;;;;;;;9.70;2.97;;;6.70;91.40;;;;;;5071411;28;20067;-46
2023/12/30 12:44:14;;;;;;;10.95;2.10;;;6.70;91.30;;;;;;5070779;28;20121;-48
2023/12/30 12:46:39;;;;;;;14.27;3.28;;;6.60;91.20;;;;;;5076866;28;20107;-48
2023/12/30 12:49:06;;;;;;;10.00;2.88;;;6.60;91.00;;;;;;5092388;28;20027;-46
2023/12/30 12:51:36;;;;;;;14.25;2.58;;;6.60;91.00;;;;;;5076712;28;20033;-47
2023/12/30 12:54:03;;;;;;;;;;;6.60;91.00;;;;;;5077382;28;20471;-46
2023/12/30 12:56:30;;;;;;;11.02;3.30;;;6.70;91.00;;;;;;5073677;28;19920;-47